createdAt,value
2024-04-19T00:01:38.415Z,7.90
2024-04-19T00:04:36.133Z,8.00
2024-04-19T00:07:30.615Z,8.10
2024-04-19T00:13:38.637Z,7.80
2024-04-19T00:16:22.426Z,7.80
2024-04-19T00:19:40.733Z,8.00
2024-04-19T00:21:58.687Z,7.70
2024-04-19T00:24:38.810Z,7.60
2024-04-19T00:27:31.646Z,7.70
2024-04-19T00:30:13.766Z,7.80
2024-04-19T00:39:03.976Z,7.50
2024-04-19T00:42:23.410Z,7.60
2024-04-19T00:47:51.022Z,7.70
2024-04-19T00:51:01.532Z,7.60
2024-04-19T00:53:48.377Z,7.90
2024-04-19T00:53:48.918Z,7.70
2024-04-19T00:56:35.810Z,7.70
2024-04-19T00:59:23.993Z,7.70
2024-04-19T01:02:08.617Z,7.80
2024-04-19T01:04:37.228Z,7.80
2024-04-19T01:11:19.546Z,7.60
2024-04-19T01:13:22.697Z,7.60
2024-04-19T01:16:02.415Z,7.80
2024-04-19T01:19:07.123Z,7.80
2024-04-19T01:22:01.623Z,7.80
2024-04-19T01:24:57.759Z,7.80
2024-04-19T01:27:57.342Z,7.80
2024-04-19T01:30:25.083Z,7.90
2024-04-19T01:33:05.901Z,7.90
2024-04-19T01:35:45.033Z,7.80
2024-04-19T01:38:24.859Z,7.80
2024-04-19T01:43:36.835Z,7.60
2024-04-19T01:44:07.698Z,7.50
2024-04-19T01:47:10.382Z,7.50
2024-04-19T01:50:05.374Z,7.50
2024-04-19T01:55:56.204Z,7.50
2024-04-19T01:58:28.029Z,7.50
2024-04-19T01:58:50.767Z,7.40
2024-04-19T02:01:36.845Z,7.30
2024-04-19T02:04:59.779Z,7.20
2024-04-19T02:07:48.691Z,7.30
2024-04-19T02:10:24.446Z,7.40
2024-04-19T02:13:28.188Z,7.40
2024-04-19T02:16:45.905Z,7.40
2024-04-19T02:19:34.450Z,7.20
2024-04-19T02:22:15.766Z,7.30
2024-04-19T02:25:00.794Z,7.40
2024-04-19T02:27:50.417Z,7.50
2024-04-19T02:30:37.577Z,7.40
2024-04-19T02:33:36.771Z,7.20
2024-04-19T02:36:30.431Z,7.20
2024-04-19T02:39:15.897Z,7.20
2024-04-19T02:42:05.983Z,7.20
2024-04-19T02:45:00.757Z,7.30
2024-04-19T02:48:02.091Z,7.20
2024-04-19T02:50:34.030Z,7.30
2024-04-19T02:53:05.720Z,7.20
2024-04-19T02:56:42.734Z,7.10
2024-04-19T03:01:45.603Z,7.20
2024-04-19T03:02:39.872Z,7.20
2024-04-19T03:05:16.398Z,7.30
2024-04-19T03:08:27.164Z,7.40
2024-04-19T03:14:22.147Z,7.40
2024-04-19T03:19:32.630Z,7.20
2024-04-19T03:20:49.074Z,7.20
2024-04-19T03:23:51.399Z,7.20
2024-04-19T03:29:28.247Z,7.20
2024-04-19T03:32:35.367Z,7.20
2024-04-19T03:35:06.096Z,7.00
2024-04-19T03:38:26.580Z,7.00
2024-04-19T03:41:21.699Z,7.00
2024-04-19T03:44:19.060Z,6.90
2024-04-19T03:47:00.560Z,6.90
2024-04-19T03:50:15.533Z,6.80
2024-04-19T03:52:59.107Z,6.70
2024-04-19T03:55:52.895Z,6.80
2024-04-19T03:58:40.678Z,6.90
2024-04-19T04:01:32.698Z,6.80
2024-04-19T04:04:48.176Z,6.80
2024-04-19T04:10:12.750Z,6.80
2024-04-19T04:10:46.612Z,6.80
2024-04-19T04:13:20.185Z,6.70
2024-04-19T04:16:15.860Z,6.70
2024-04-19T04:19:34.382Z,6.80
2024-04-19T04:22:06.499Z,6.90
2024-04-19T04:25:16.163Z,6.80
2024-04-19T04:28:06.167Z,6.80
2024-04-19T04:30:43.054Z,6.80
2024-04-19T04:33:15.755Z,6.90
2024-04-19T04:36:04.518Z,6.80
2024-04-19T04:39:09.073Z,6.90
2024-04-19T04:42:03.595Z,6.80
2024-04-19T04:44:44.975Z,6.80
2024-04-19T04:47:28.624Z,6.80
2024-04-19T04:53:23.655Z,6.80
2024-04-19T04:59:28.359Z,7.00
2024-04-19T05:05:56.838Z,7.10
2024-04-19T05:11:29.986Z,7.00
2024-04-19T05:15:41.404Z,7.00
2024-04-19T05:18:23.374Z,6.90
2024-04-19T05:21:07.982Z,6.80
2024-04-19T05:24:08.942Z,6.80
2024-04-19T05:30:13.658Z,6.90
2024-04-19T05:33:00.026Z,7.00
2024-04-19T05:35:43.419Z,7.00
2024-04-19T05:38:41.059Z,7.00
2024-04-19T05:41:32.508Z,7.00
2024-04-19T05:44:03.420Z,7.00
2024-04-19T05:47:22.202Z,6.90
2024-04-19T05:52:52.752Z,7.20
2024-04-19T06:02:47.373Z,7.20
2024-04-19T06:04:33.599Z,7.20
2024-04-19T06:05:16.162Z,7.20
2024-04-19T06:07:49.770Z,7.20
2024-04-19T06:10:39.486Z,7.20
2024-04-19T06:13:29.153Z,7.10
2024-04-19T06:16:26.342Z,7.10
2024-04-19T06:17:44.351Z,7.20
2024-04-19T06:19:03.442Z,7.10
2024-04-19T06:22:23.460Z,7.10
2024-04-19T06:25:01.006Z,7.00
2024-04-19T06:28:06.270Z,7.00
2024-04-19T06:30:34.786Z,6.90
2024-04-19T06:33:09.886Z,7.00
2024-04-19T06:35:40.546Z,7.00
2024-04-19T06:38:13.107Z,7.00
2024-04-19T06:40:57.016Z,7.00
2024-04-19T06:43:55.024Z,7.10
2024-04-19T06:46:32.371Z,7.00
2024-04-19T06:48:59.500Z,6.90
2024-04-19T06:51:37.507Z,6.80
2024-04-19T06:54:14.304Z,6.70
2024-04-19T06:56:46.612Z,6.70
2024-04-19T06:59:25.964Z,6.70
2024-04-19T07:02:09.231Z,6.60
2024-04-19T07:04:38.945Z,6.50
2024-04-19T07:08:22.154Z,6.40
2024-04-19T07:10:40.841Z,6.30
2024-04-19T07:13:28.886Z,6.30
2024-04-19T07:16:48.549Z,6.30
2024-04-19T07:19:19.085Z,6.20
2024-04-19T07:22:24.683Z,6.20
2024-04-19T07:25:04.125Z,6.10
2024-04-19T07:28:05.480Z,6.20
2024-04-19T07:38:39.927Z,6.30
2024-04-19T07:46:03.089Z,6.40
2024-04-19T07:47:42.051Z,6.50
2024-04-19T07:53:01.922Z,6.50
2024-04-19T07:53:37.082Z,6.50
2024-04-19T07:56:43.422Z,6.60
2024-04-19T08:00:06.477Z,6.50
2024-04-19T08:06:07.232Z,6.50
2024-04-19T08:08:59.978Z,6.60
2024-04-19T08:12:11.030Z,6.50
2024-04-19T08:14:59.220Z,6.40
2024-04-19T08:18:32.623Z,6.40
2024-04-19T08:21:08.800Z,6.40
2024-04-19T08:24:26.211Z,6.50
2024-04-19T08:26:58.370Z,6.70
2024-04-19T08:29:46.943Z,6.80
2024-04-19T08:35:00.326Z,6.90
2024-04-19T08:41:03.726Z,6.80
2024-04-19T08:43:56.875Z,6.80
2024-04-19T08:46:41.209Z,6.90
2024-04-19T08:49:37.353Z,7.00
2024-04-19T08:52:38.353Z,6.90
2024-04-19T08:55:43.049Z,6.80
2024-04-19T08:59:10.920Z,6.90
2024-04-19T09:06:12.411Z,7.10
2024-04-19T09:07:54.116Z,7.20
2024-04-19T09:09:00.234Z,7.00
2024-04-19T09:11:43.743Z,6.90
2024-04-19T09:14:24.373Z,6.90
2024-04-19T09:17:02.832Z,6.90
2024-04-19T09:20:42.185Z,7.00
2024-04-19T09:23:04.833Z,6.90
2024-04-19T09:26:14.534Z,6.90
2024-04-19T09:29:47.429Z,6.90
2024-04-19T09:36:20.924Z,6.90
2024-04-19T09:39:05.846Z,6.90
2024-04-19T09:41:59.995Z,6.90
2024-04-19T09:48:58.234Z,6.90
2024-04-19T09:49:55.091Z,6.90
2024-04-19T09:55:29.369Z,6.90
2024-04-19T09:57:35.341Z,6.90
2024-04-19T10:00:44.305Z,6.90
2024-04-19T10:03:30.123Z,7.00
2024-04-19T10:06:33.011Z,6.90
2024-04-19T10:09:26.001Z,7.00
2024-04-19T10:12:36.887Z,6.90
2024-04-19T10:16:37.765Z,7.00
2024-04-19T10:19:57.811Z,7.00
2024-04-19T10:22:48.658Z,7.00
2024-04-19T10:25:30.480Z,7.80
2024-04-19T10:27:58.574Z,8.30
2024-04-19T10:30:51.223Z,8.50
2024-04-19T10:33:27.490Z,8.50
2024-04-19T10:35:55.863Z,8.20
2024-04-19T10:41:23.429Z,8.30
2024-04-19T10:44:15.407Z,8.50
2024-04-19T10:46:54.056Z,8.30
2024-04-19T10:49:36.013Z,8.20
2024-04-19T10:52:41.630Z,8.10
2024-04-19T10:55:11.526Z,8.50
2024-04-19T10:57:59.991Z,8.50
2024-04-19T11:00:33.706Z,8.50
2024-04-19T11:03:14.463Z,8.60
2024-04-19T11:05:50.597Z,8.80
2024-04-19T11:08:26.563Z,8.90
2024-04-19T11:11:46.487Z,9.00
2024-04-19T11:14:52.656Z,9.00
2024-04-19T11:18:18.685Z,8.50
2024-04-19T11:20:36.468Z,8.20
2024-04-19T11:23:35.655Z,8.20
2024-04-19T11:29:33.352Z,8.60
2024-04-19T11:29:44.428Z,8.50
2024-04-19T11:32:15.725Z,8.90
2024-04-19T11:34:48.973Z,8.80
2024-04-19T11:37:59.093Z,8.70
2024-04-19T11:47:01.502Z,8.00
2024-04-19T11:49:55.423Z,8.10
2024-04-19T11:50:12.171Z,8.30
2024-04-19T11:52:29.869Z,8.30
2024-04-19T11:55:32.491Z,8.50
2024-04-19T11:58:05.951Z,8.40
2024-04-19T12:00:45.578Z,8.10
2024-04-19T12:03:13.446Z,7.80
2024-04-19T12:05:45.439Z,8.00
2024-04-19T12:08:13.877Z,8.20
2024-04-19T12:10:41.389Z,8.10
2024-04-19T12:13:50.917Z,8.20
2024-04-19T12:16:32.340Z,8.20
2024-04-19T12:19:05.223Z,8.00
2024-04-19T12:27:40.822Z,7.60
2024-04-19T12:28:04.384Z,7.50
2024-04-19T12:41:31.471Z,7.50
2024-04-19T12:58:17.886Z,8.00
2024-04-19T13:00:57.473Z,8.00
2024-04-19T13:03:47.181Z,8.10
2024-04-19T13:06:35.027Z,7.90
2024-04-19T13:12:24.745Z,8.20
2024-04-19T13:15:00.951Z,8.60
2024-04-19T13:17:53.648Z,8.30
2024-04-19T13:21:10.827Z,8.30
2024-04-19T13:24:20.134Z,8.20
2024-04-19T13:27:20.331Z,8.30
2024-04-19T13:34:20.802Z,8.60
2024-04-19T13:47:14.894Z,9.00
2024-04-19T13:50:21.488Z,9.20
2024-04-19T13:54:10.660Z,9.40
2024-04-19T13:56:21.355Z,9.20
2024-04-19T13:59:14.692Z,9.10
2024-04-19T14:02:11.437Z,9.20
2024-04-19T14:04:43.479Z,9.20
2024-04-19T14:07:15.041Z,9.40
2024-04-19T14:12:42.278Z,9.80
2024-04-19T14:15:26.409Z,9.80
2024-04-19T14:37:04.665Z,10.00
2024-04-19T15:15:36.195Z,10.80
2024-04-19T15:19:52.326Z,11.10
2024-04-19T15:31:13.693Z,11.50
2024-04-19T15:39:38.807Z,11.60
2024-04-19T15:42:12.361Z,11.60
2024-04-19T15:44:42.579Z,11.40
2024-04-19T15:47:17.114Z,11.10
2024-04-19T15:49:47.436Z,10.90
2024-04-19T15:56:35.610Z,10.90
2024-04-19T15:59:31.501Z,11.20
2024-04-19T16:06:10.520Z,11.10
2024-04-19T16:23:48.948Z,10.40
2024-04-19T16:26:35.182Z,10.10
2024-04-19T16:57:26.434Z,10.90
2024-04-19T16:59:56.818Z,10.80
2024-04-19T17:02:24.288Z,10.50
2024-04-19T17:05:19.156Z,10.20
2024-04-19T17:34:41.244Z,10.00
2024-04-19T17:37:18.493Z,10.30
2024-04-19T17:39:50.841Z,10.60
2024-04-19T17:43:58.340Z,10.80
2024-04-19T17:51:04.468Z,11.10
2024-04-19T17:57:31.726Z,11.10
2024-04-19T18:01:41.756Z,10.30
2024-04-19T18:06:55.822Z,10.70
2024-04-19T18:08:30.428Z,10.00
2024-04-19T18:24:40.116Z,9.80
2024-04-19T18:30:07.400Z,10.00
2024-04-19T19:31:55.699Z,9.10
2024-04-19T19:35:13.620Z,9.20
2024-04-19T19:41:38.957Z,9.40
2024-04-19T19:44:53.177Z,9.20
2024-04-19T19:48:16.581Z,9.10
2024-04-19T19:51:35.298Z,9.20
2024-04-19T19:54:26.415Z,9.20
2024-04-19T20:00:50.904Z,9.50
2024-04-19T20:04:01.826Z,9.50
2024-04-19T20:07:22.304Z,9.60
2024-04-19T20:09:19.881Z,9.40
2024-04-19T20:15:56.866Z,9.40
2024-04-19T20:19:02.229Z,9.20
2024-04-19T20:23:40.863Z,9.20
2024-04-19T20:32:14.815Z,9.40
2024-04-19T20:37:32.615Z,9.40
2024-04-19T20:37:54.773Z,9.20
2024-04-19T20:40:55.700Z,9.20
2024-04-19T20:44:08.084Z,9.20
2024-04-19T20:51:03.760Z,9.20
2024-04-19T21:06:26.345Z,8.20
2024-04-19T21:08:49.847Z,8.20
2024-04-19T21:12:27.983Z,8.40
2024-04-19T21:14:31.333Z,8.40
2024-04-19T21:15:21.612Z,8.60
